• Join FlightAware (Why Join?)
  • Login
  • US Flag 
01:58PM EDT


 

Airport Tracker/Info


-or-


 

Live Flight TrackerFlight Track Log ✈ GJS3707 ✈ 26-May-2013 ✈ KDTW - KORD

Flight Track Log - Related Links

Times and Time Zones

All times are in EDT time to prevent confusion due to time zone crossing. See the GJS3707 flight status page for this flight to view local times or setup timezone preferences in your user account.

Time Position Orientation Groundspeed Altitude Reporting Facility
EDT Latitude Longitude Course Direction KTS MPH feet Rate Location/Type
08:12AM 42.2314 -83.3342 285° West 157 181 1,300  Level Cleveland Center
08:12AM 42.2567 -83.3214 21° North 163 188 2,400 2,160 Climbing Cleveland Center
08:13AM 42.3003 -83.3231 358° North 184 212 4,800 2,400 Climbing Cleveland Center
08:14AM 42.3472 -83.3703 323° Northwest 184 212 7,200 2,700 Climbing Cleveland Center
08:15AM 42.2899 -83.6827 285° West  Level FlightAware Approximate
08:15AM 42.3614 -83.4719 281° West 184 212 10,200  Level Cleveland Center
08:16AM 42.3128 -83.7652 298° West  Level FlightAware Approximate
08:16AM 42.3692 -83.5764 276° West 262 302 13,100  Level Cleveland Center
08:17AM 42.3392 -83.8458 285° West  Level FlightAware Approximate
08:17AM 42.3786 -83.6864 277° West 284 327 15,500  Level Cleveland Center
08:18AM 42.3883 -83.7936 277° West 296 341 17,900 2,220 Climbing Cleveland Center
08:19AM 42.3978 -83.9039 277° West 296 341 20,000 1,980 Climbing Cleveland Center
08:20AM 42.4089 -84.0228 277° West 296 341 21,900 600 Climbing Cleveland Center
08:22AM 42.4303 -84.2658 277° West 325 374 22,000  Climbing Chicago Center
08:23AM 42.4331 -84.3881 272° West 326 375 22,000  Level Chicago Center
08:24AM 42.4361 -84.5097 272° West 325 374 22,000  Level Chicago Center
08:25AM 42.4400 -84.6306 273° West 322 371 22,000  Level Chicago Center
08:26AM 42.4425 -84.7531 272° West 325 374 22,000  Level Chicago Center
08:27AM 42.4453 -84.8833 272° West 340 391 22,000  Level Chicago Center
08:28AM 42.4489 -85.0539 272° West 371 427 22,000 -300 Level Chicago Center
08:29AM 42.4528 -85.1936 272° West 374 430 21,500 -540 Descending Chicago Center
08:30AM 42.4547 -85.3308 271° West 368 423 21,000 -540 Descending Chicago Center
08:31AM 42.4564 -85.4672 271° West 363 418 20,500 -540 Descending Chicago Center
08:32AM 42.4594 -85.6042 272° West 362 417 20,000 -300 Descending Chicago Center
08:33AM 42.4614 -85.7467 271° West 376 433 20,000  Level Chicago Center
08:34AM 42.4628 -85.8908 271° West 382 440 20,000  Level Chicago Center
08:35AM 42.4639 -86.0350 271° West 382 440 20,000  Level Chicago Center
08:36AM 42.4594 -86.1792 268° West 383 441 20,000  Level Chicago Center
08:37AM 42.4522 -86.3231 266° West 382 440 20,000 -360 Level Chicago Center
08:38AM 42.4447 -86.4664 266° West 380 437 19,300 -1,140 Descending Chicago Center
08:39AM 42.4372 -86.6111 266° West 384 442 17,700 -1,680 Descending Chicago Center
08:40AM 42.4311 -86.7478 267° West 368 423 15,900 -1,740 Descending Chicago Center
08:41AM 42.4250 -86.8772 266° West 349 402 14,300 -1,560 Descending Chicago Center
08:42AM 42.4172 -87.0050 265° West 343 395 12,800 -1,560 Descending Chicago Center
08:43AM 42.4083 -87.1311 265° West 337 388 11,200 -1,440 Descending Chicago Center
08:44AM 42.4008 -87.2586 265° West 341 392 10,000 -600 Descending Chicago Center
08:45AM 42.3803 -87.3819 257° West 342 394 10,000  Level Chicago Center
08:47AM 42.3275 -87.4931 237° Southwest 348 400 10,000 -300 Level Chicago Center
08:48AM 42.2664 -87.5700 223° Southwest 306 352 9,500 -1,200 Descending Chicago Center
08:49AM 42.2133 -87.6381 224° Southwest 271 312 7,600 -1,260 Descending Chicago Center
08:50AM 42.1831 -87.7081 240° Southwest 228 262 7,000 -300 Descending Chicago Center
08:51AM 42.1794 -87.7806 266° West 198 228 7,000 -120 Level Chicago Center
08:52AM 42.1797 -87.8686 270° West 200 230 6,800 -660 Descending Chicago Center
08:53AM 42.1947 -87.9408 286° West 202 232 5,700 -960 Descending Chicago Center
08:54AM 42.2081 -88.0144 284° West 206 237 4,900 -960 Descending Chicago Center
08:55AM 42.1742 -88.0650 228° Southwest 186 214 3,800 -1,020 Descending Chicago Center
08:56AM 42.1331 -88.0978 211° Southwest 184 212 2,900 -600 Descending Chicago Center
08:56AM 42.1000 -88.0667 145° Southeast 159 183 2,800 -240 Descending Chicago TRACON
08:57AM 42.0667 -88.0333 143° Southeast 166 191 2,500 -300 Descending Chicago TRACON